sensor_id;sensor_type;location;lat;lon;timestamp;P1;durP1;ratioP1;P2;durP2;ratioP2
3447;SDS011;1738;49.500;17.736;2023-05-07T00:02:25;21.23;;;12.80;;
3447;SDS011;1738;49.500;17.736;2023-05-07T00:04:51;19.07;;;11.93;;
3447;SDS011;1738;49.500;17.736;2023-05-07T00:07:17;23.58;;;14.27;;
3447;SDS011;1738;49.500;17.736;2023-05-07T00:09:43;20.40;;;14.40;;
3447;SDS011;1738;49.500;17.736;2023-05-07T00:12:09;18.27;;;13.43;;
3447;SDS011;1738;49.500;17.736;2023-05-07T00:14:35;20.00;;;13.43;;
3447;SDS011;1738;49.500;17.736;2023-05-07T00:17:01;17.37;;;12.80;;
3447;SDS011;1738;49.500;17.736;2023-05-07T00:19:26;19.30;;;14.07;;
3447;SDS011;1738;49.500;17.736;2023-05-07T00:21:52;19.67;;;13.63;;
3447;SDS011;1738;49.500;17.736;2023-05-07T00:24:19;22.10;;;13.80;;
3447;SDS011;1738;49.500;17.736;2023-05-07T00:26:45;20.83;;;14.20;;
3447;SDS011;1738;49.500;17.736;2023-05-07T00:29:11;23.00;;;13.97;;
3447;SDS011;1738;49.500;17.736;2023-05-07T00:31:37;19.50;;;13.67;;
3447;SDS011;1738;49.500;17.736;2023-05-07T00:34:03;19.77;;;12.70;;
3447;SDS011;1738;49.500;17.736;2023-05-07T00:36:29;20.30;;;14.23;;
3447;SDS011;1738;49.500;17.736;2023-05-07T00:38:56;22.40;;;14.33;;
3447;SDS011;1738;49.500;17.736;2023-05-07T00:41:21;23.17;;;14.70;;
3447;SDS011;1738;49.500;17.736;2023-05-07T00:43:47;20.37;;;15.30;;
3447;SDS011;1738;49.500;17.736;2023-05-07T00:46:13;23.00;;;14.80;;
3447;SDS011;1738;49.500;17.736;2023-05-07T00:48:38;29.33;;;16.67;;
3447;SDS011;1738;49.500;17.736;2023-05-07T00:51:04;21.50;;;15.00;;
3447;SDS011;1738;49.500;17.736;2023-05-07T00:53:30;21.47;;;14.33;;
3447;SDS011;1738;49.500;17.736;2023-05-07T00:55:56;25.30;;;15.03;;
3447;SDS011;1738;49.500;17.736;2023-05-07T00:58:22;22.93;;;15.90;;
3447;SDS011;1738;49.500;17.736;2023-05-07T01:00:48;24.80;;;15.77;;
3447;SDS011;1738;49.500;17.736;2023-05-07T01:03:13;22.83;;;15.00;;
3447;SDS011;1738;49.500;17.736;2023-05-07T01:05:39;28.43;;;15.83;;
3447;SDS011;1738;49.500;17.736;2023-05-07T01:08:05;22.80;;;15.53;;
3447;SDS011;1738;49.500;17.736;2023-05-07T01:10:31;22.63;;;15.07;;
3447;SDS011;1738;49.500;17.736;2023-05-07T01:12:57;26.80;;;16.03;;
3447;SDS011;1738;49.500;17.736;2023-05-07T01:15:23;29.43;;;13.17;;
3447;SDS011;1738;49.500;17.736;2023-05-07T01:17:48;25.03;;;15.10;;
3447;SDS011;1738;49.500;17.736;2023-05-07T01:20:14;21.27;;;13.80;;
3447;SDS011;1738;49.500;17.736;2023-05-07T01:22:40;19.03;;;12.43;;
3447;SDS011;1738;49.500;17.736;2023-05-07T01:25:06;24.30;;;15.90;;
3447;SDS011;1738;49.500;17.736;2023-05-07T01:27:32;29.17;;;15.93;;
3447;SDS011;1738;49.500;17.736;2023-05-07T01:29:58;25.70;;;12.97;;
3447;SDS011;1738;49.500;17.736;2023-05-07T01:34:56;23.23;;;14.37;;
3447;SDS011;1738;49.500;17.736;2023-05-07T01:37:21;26.63;;;13.70;;
3447;SDS011;1738;49.500;17.736;2023-05-07T01:39:47;20.80;;;11.50;;
3447;SDS011;1738;49.500;17.736;2023-05-07T01:42:13;24.60;;;13.45;;
3447;SDS011;1738;49.500;17.736;2023-05-07T01:44:39;22.40;;;13.93;;
3447;SDS011;1738;49.500;17.736;2023-05-07T01:47:05;24.20;;;14.07;;
3447;SDS011;1738;49.500;17.736;2023-05-07T01:49:31;23.43;;;14.67;;
3447;SDS011;1738;49.500;17.736;2023-05-07T01:51:57;22.50;;;13.20;;
3447;SDS011;1738;49.500;17.736;2023-05-07T01:54:25;19.87;;;12.43;;
3447;SDS011;1738;49.500;17.736;2023-05-07T01:56:50;21.30;;;13.43;;
3447;SDS011;1738;49.500;17.736;2023-05-07T01:59:16;16.87;;;13.00;;
3447;SDS011;1738;49.500;17.736;2023-05-07T02:01:42;20.37;;;13.47;;
3447;SDS011;1738;49.500;17.736;2023-05-07T02:04:08;26.90;;;14.47;;
3447;SDS011;1738;49.500;17.736;2023-05-07T02:06:33;21.33;;;10.68;;
3447;SDS011;1738;49.500;17.736;2023-05-07T02:08:59;17.47;;;10.93;;
3447;SDS011;1738;49.500;17.736;2023-05-07T02:11:25;18.80;;;12.20;;
3447;SDS011;1738;49.500;17.736;2023-05-07T02:13:51;20.33;;;13.50;;
3447;SDS011;1738;49.500;17.736;2023-05-07T02:16:17;21.30;;;13.20;;
3447;SDS011;1738;49.500;17.736;2023-05-07T02:18:43;26.33;;;13.70;;
3447;SDS011;1738;49.500;17.736;2023-05-07T02:21:09;19.33;;;12.67;;
3447;SDS011;1738;49.500;17.736;2023-05-07T02:23:34;21.93;;;14.57;;
3447;SDS011;1738;49.500;17.736;2023-05-07T02:26:00;17.83;;;11.90;;
3447;SDS011;1738;49.500;17.736;2023-05-07T02:28:26;18.10;;;10.53;;
3447;SDS011;1738;49.500;17.736;2023-05-07T02:30:52;22.85;;;12.50;;
3447;SDS011;1738;49.500;17.736;2023-05-07T02:33:18;18.53;;;12.97;;
3447;SDS011;1738;49.500;17.736;2023-05-07T02:35:44;24.60;;;14.37;;
3447;SDS011;1738;49.500;17.736;2023-05-07T02:38:10;22.53;;;13.57;;
3447;SDS011;1738;49.500;17.736;2023-05-07T02:40:36;24.17;;;12.70;;
3447;SDS011;1738;49.500;17.736;2023-05-07T02:43:01;22.27;;;13.07;;
3447;SDS011;1738;49.500;17.736;2023-05-07T02:45:27;22.83;;;13.40;;
3447;SDS011;1738;49.500;17.736;2023-05-07T02:47:53;21.27;;;13.80;;
3447;SDS011;1738;49.500;17.736;2023-05-07T02:50:19;19.53;;;12.43;;
3447;SDS011;1738;49.500;17.736;2023-05-07T02:52:45;19.10;;;13.47;;
3447;SDS011;1738;49.500;17.736;2023-05-07T02:55:10;19.23;;;12.27;;
3447;SDS011;1738;49.500;17.736;2023-05-07T02:57:36;22.10;;;14.80;;
3447;SDS011;1738;49.500;17.736;2023-05-07T03:02:34;24.87;;;14.60;;
3447;SDS011;1738;49.500;17.736;2023-05-07T03:05:00;22.90;;;13.83;;
3447;SDS011;1738;49.500;17.736;2023-05-07T03:07:26;24.53;;;15.07;;
3447;SDS011;1738;49.500;17.736;2023-05-07T03:09:51;17.20;;;9.77;;
3447;SDS011;1738;49.500;17.736;2023-05-07T03:12:17;20.33;;;14.30;;
3447;SDS011;1738;49.500;17.736;2023-05-07T03:14:43;20.27;;;12.70;;
3447;SDS011;1738;49.500;17.736;2023-05-07T03:17:09;23.97;;;13.53;;
3447;SDS011;1738;49.500;17.736;2023-05-07T03:19:35;25.03;;;14.50;;
3447;SDS011;1738;49.500;17.736;2023-05-07T03:22:01;22.87;;;13.10;;
3447;SDS011;1738;49.500;17.736;2023-05-07T03:24:27;23.27;;;13.17;;
3447;SDS011;1738;49.500;17.736;2023-05-07T03:26:52;26.43;;;15.40;;
3447;SDS011;1738;49.500;17.736;2023-05-07T03:29:18;23.20;;;13.10;;
3447;SDS011;1738;49.500;17.736;2023-05-07T03:31:44;21.63;;;13.03;;
3447;SDS011;1738;49.500;17.736;2023-05-07T03:34:10;26.07;;;15.80;;
3447;SDS011;1738;49.500;17.736;2023-05-07T03:36:36;20.60;;;13.30;;
3447;SDS011;1738;49.500;17.736;2023-05-07T03:39:02;21.53;;;12.70;;
3447;SDS011;1738;49.500;17.736;2023-05-07T03:41:28;21.47;;;9.10;;
3447;SDS011;1738;49.500;17.736;2023-05-07T03:43:54;23.70;;;14.17;;
3447;SDS011;1738;49.500;17.736;2023-05-07T03:46:19;19.50;;;14.07;;
3447;SDS011;1738;49.500;17.736;2023-05-07T03:48:45;17.50;;;11.70;;
3447;SDS011;1738;49.500;17.736;2023-05-07T03:51:11;26.33;;;15.37;;
3447;SDS011;1738;49.500;17.736;2023-05-07T03:53:37;19.60;;;12.17;;
3447;SDS011;1738;49.500;17.736;2023-05-07T03:56:03;18.50;;;10.90;;
3447;SDS011;1738;49.500;17.736;2023-05-07T03:58:29;20.23;;;13.13;;
3447;SDS011;1738;49.500;17.736;2023-05-07T04:00:55;23.30;;;13.03;;
3447;SDS011;1738;49.500;17.736;2023-05-07T04:03:21;14.65;;;9.27;;
3447;SDS011;1738;49.500;17.736;2023-05-07T04:05:47;22.03;;;14.13;;
3447;SDS011;1738;49.500;17.736;2023-05-07T04:08:12;23.30;;;14.80;;
3447;SDS011;1738;49.500;17.736;2023-05-07T04:10:38;21.85;;;11.85;;
3447;SDS011;1738;49.500;17.736;2023-05-07T04:13:04;20.00;;;13.80;;
3447;SDS011;1738;49.500;17.736;2023-05-07T04:15:30;21.37;;;13.63;;
3447;SDS011;1738;49.500;17.736;2023-05-07T04:17:56;24.00;;;13.70;;
3447;SDS011;1738;49.500;17.736;2023-05-07T04:20:22;21.37;;;13.07;;
3447;SDS011;1738;49.500;17.736;2023-05-07T04:22:47;28.00;;;14.10;;
3447;SDS011;1738;49.500;17.736;2023-05-07T04:25:13;23.40;;;14.03;;
3447;SDS011;1738;49.500;17.736;2023-05-07T04:27:39;19.77;;;11.83;;
3447;SDS011;1738;49.500;17.736;2023-05-07T04:30:06;22.70;;;14.03;;
3447;SDS011;1738;49.500;17.736;2023-05-07T04:32:31;22.00;;;14.70;;
3447;SDS011;1738;49.500;17.736;2023-05-07T04:34:57;18.10;;;12.70;;
3447;SDS011;1738;49.500;17.736;2023-05-07T04:37:24;21.60;;;14.97;;
3447;SDS011;1738;49.500;17.736;2023-05-07T04:39:49;17.47;;;8.13;;
3447;SDS011;1738;49.500;17.736;2023-05-07T04:42:15;18.98;;;12.37;;
3447;SDS011;1738;49.500;17.736;2023-05-07T04:44:41;17.33;;;10.00;;
3447;SDS011;1738;49.500;17.736;2023-05-07T04:47:07;16.73;;;11.73;;
3447;SDS011;1738;49.500;17.736;2023-05-07T04:49:33;17.80;;;11.77;;
3447;SDS011;1738;49.500;17.736;2023-05-07T04:51:59;17.63;;;9.90;;
3447;SDS011;1738;49.500;17.736;2023-05-07T04:54:25;18.50;;;12.60;;
3447;SDS011;1738;49.500;17.736;2023-05-07T04:56:50;17.50;;;10.87;;
3447;SDS011;1738;49.500;17.736;2023-05-07T04:59:16;20.40;;;12.83;;
3447;SDS011;1738;49.500;17.736;2023-05-07T05:01:43;17.97;;;10.40;;
3447;SDS011;1738;49.500;17.736;2023-05-07T05:04:10;16.23;;;11.13;;
3447;SDS011;1738;49.500;17.736;2023-05-07T05:06:36;13.90;;;9.65;;
3447;SDS011;1738;49.500;17.736;2023-05-07T05:09:02;11.45;;;8.02;;
3447;SDS011;1738;49.500;17.736;2023-05-07T05:11:28;13.40;;;10.13;;
3447;SDS011;1738;49.500;17.736;2023-05-07T05:13:54;13.73;;;10.50;;
3447;SDS011;1738;49.500;17.736;2023-05-07T05:16:20;15.15;;;10.65;;
3447;SDS011;1738;49.500;17.736;2023-05-07T05:18:46;16.10;;;9.63;;
3447;SDS011;1738;49.500;17.736;2023-05-07T05:21:12;9.97;;;8.07;;
3447;SDS011;1738;49.500;17.736;2023-05-07T05:23:38;15.13;;;10.65;;
3447;SDS011;1738;49.500;17.736;2023-05-07T05:26:04;15.40;;;10.90;;
3447;SDS011;1738;49.500;17.736;2023-05-07T05:28:30;9.50;;;7.60;;
3447;SDS011;1738;49.500;17.736;2023-05-07T05:30:55;22.67;;;13.00;;
3447;SDS011;1738;49.500;17.736;2023-05-07T05:33:21;17.70;;;10.87;;
3447;SDS011;1738;49.500;17.736;2023-05-07T05:35:47;14.80;;;8.97;;
3447;SDS011;1738;49.500;17.736;2023-05-07T05:38:13;18.42;;;11.52;;
3447;SDS011;1738;49.500;17.736;2023-05-07T05:40:39;22.33;;;9.10;;
3447;SDS011;1738;49.500;17.736;2023-05-07T05:43:05;12.73;;;9.10;;
3447;SDS011;1738;49.500;17.736;2023-05-07T05:45:31;12.30;;;7.70;;
3447;SDS011;1738;49.500;17.736;2023-05-07T05:47:57;15.33;;;9.27;;
3447;SDS011;1738;49.500;17.736;2023-05-07T05:50:23;12.90;;;8.90;;
3447;SDS011;1738;49.500;17.736;2023-05-07T05:52:49;16.23;;;6.83;;
3447;SDS011;1738;49.500;17.736;2023-05-07T05:55:14;10.37;;;6.67;;
3447;SDS011;1738;49.500;17.736;2023-05-07T05:57:40;7.97;;;5.40;;
3447;SDS011;1738;49.500;17.736;2023-05-07T06:00:07;10.43;;;6.83;;
3447;SDS011;1738;49.500;17.736;2023-05-07T06:02:33;9.57;;;6.00;;
3447;SDS011;1738;49.500;17.736;2023-05-07T06:04:59;10.17;;;6.60;;
3447;SDS011;1738;49.500;17.736;2023-05-07T06:07:24;10.77;;;7.47;;
3447;SDS011;1738;49.500;17.736;2023-05-07T06:09:50;11.13;;;6.57;;
3447;SDS011;1738;49.500;17.736;2023-05-07T06:12:16;10.50;;;7.87;;
3447;SDS011;1738;49.500;17.736;2023-05-07T06:14:42;6.80;;;5.30;;
3447;SDS011;1738;49.500;17.736;2023-05-07T06:17:08;12.00;;;6.13;;
3447;SDS011;1738;49.500;17.736;2023-05-07T06:19:34;10.50;;;6.97;;
3447;SDS011;1738;49.500;17.736;2023-05-07T06:22:00;10.17;;;7.07;;
3447;SDS011;1738;49.500;17.736;2023-05-07T06:24:25;8.83;;;5.77;;
3447;SDS011;1738;49.500;17.736;2023-05-07T06:26:51;9.00;;;7.10;;
3447;SDS011;1738;49.500;17.736;2023-05-07T06:29:17;11.43;;;6.63;;
3447;SDS011;1738;49.500;17.736;2023-05-07T06:31:43;11.00;;;7.07;;
3447;SDS011;1738;49.500;17.736;2023-05-07T06:34:09;9.63;;;6.70;;
3447;SDS011;1738;49.500;17.736;2023-05-07T06:36:35;11.70;;;7.97;;
3447;SDS011;1738;49.500;17.736;2023-05-07T06:39:01;9.27;;;6.97;;
3447;SDS011;1738;49.500;17.736;2023-05-07T06:41:27;9.27;;;4.93;;
3447;SDS011;1738;49.500;17.736;2023-05-07T06:43:52;9.27;;;6.90;;
3447;SDS011;1738;49.500;17.736;2023-05-07T06:46:18;11.27;;;8.87;;
3447;SDS011;1738;49.500;17.736;2023-05-07T06:48:44;10.47;;;7.17;;
3447;SDS011;1738;49.500;17.736;2023-05-07T06:51:10;10.20;;;5.77;;
3447;SDS011;1738;49.500;17.736;2023-05-07T06:53:36;10.57;;;6.97;;
3447;SDS011;1738;49.500;17.736;2023-05-07T06:56:02;10.00;;;7.23;;
3447;SDS011;1738;49.500;17.736;2023-05-07T06:58:27;10.83;;;7.37;;
3447;SDS011;1738;49.500;17.736;2023-05-07T07:00:53;9.33;;;5.33;;
3447;SDS011;1738;49.500;17.736;2023-05-07T07:03:19;8.73;;;5.80;;
3447;SDS011;1738;49.500;17.736;2023-05-07T07:05:45;10.73;;;6.37;;
3447;SDS011;1738;49.500;17.736;2023-05-07T07:08:11;8.27;;;6.53;;
3447;SDS011;1738;49.500;17.736;2023-05-07T07:10:37;17.00;;;7.30;;
3447;SDS011;1738;49.500;17.736;2023-05-07T07:13:03;11.23;;;8.60;;
3447;SDS011;1738;49.500;17.736;2023-05-07T07:15:29;8.53;;;4.90;;
3447;SDS011;1738;49.500;17.736;2023-05-07T07:17:54;14.33;;;9.07;;
3447;SDS011;1738;49.500;17.736;2023-05-07T07:20:20;11.70;;;7.97;;
3447;SDS011;1738;49.500;17.736;2023-05-07T07:22:46;8.47;;;6.30;;
3447;SDS011;1738;49.500;17.736;2023-05-07T07:25:12;10.43;;;5.40;;
3447;SDS011;1738;49.500;17.736;2023-05-07T07:27:38;10.73;;;8.10;;
3447;SDS011;1738;49.500;17.736;2023-05-07T07:30:04;13.57;;;9.67;;
3447;SDS011;1738;49.500;17.736;2023-05-07T07:32:30;15.77;;;7.30;;
3447;SDS011;1738;49.500;17.736;2023-05-07T07:34:56;12.73;;;8.50;;
3447;SDS011;1738;49.500;17.736;2023-05-07T07:37:22;13.50;;;7.60;;
3447;SDS011;1738;49.500;17.736;2023-05-07T07:39:48;12.97;;;7.10;;
3447;SDS011;1738;49.500;17.736;2023-05-07T07:42:14;8.40;;;4.97;;
3447;SDS011;1738;49.500;17.736;2023-05-07T07:44:39;9.30;;;5.70;;
3447;SDS011;1738;49.500;17.736;2023-05-07T07:47:05;6.55;;;4.03;;
3447;SDS011;1738;49.500;17.736;2023-05-07T07:49:31;9.53;;;6.43;;
3447;SDS011;1738;49.500;17.736;2023-05-07T07:51:57;9.27;;;5.13;;
3447;SDS011;1738;49.500;17.736;2023-05-07T07:54:23;9.10;;;5.83;;
3447;SDS011;1738;49.500;17.736;2023-05-07T07:56:49;7.10;;;5.00;;
3447;SDS011;1738;49.500;17.736;2023-05-07T07:59:15;8.03;;;5.30;;
3447;SDS011;1738;49.500;17.736;2023-05-07T08:01:41;5.90;;;4.40;;
3447;SDS011;1738;49.500;17.736;2023-05-07T08:04:06;6.60;;;4.90;;
3447;SDS011;1738;49.500;17.736;2023-05-07T08:06:32;5.53;;;4.40;;
3447;SDS011;1738;49.500;17.736;2023-05-07T08:08:58;10.57;;;3.30;;
3447;SDS011;1738;49.500;17.736;2023-05-07T08:11:24;7.37;;;3.40;;
3447;SDS011;1738;49.500;17.736;2023-05-07T08:13:50;5.50;;;3.00;;
3447;SDS011;1738;49.500;17.736;2023-05-07T08:16:16;7.80;;;3.40;;
3447;SDS011;1738;49.500;17.736;2023-05-07T08:18:42;5.33;;;3.80;;
3447;SDS011;1738;49.500;17.736;2023-05-07T08:21:08;8.90;;;4.63;;
3447;SDS011;1738;49.500;17.736;2023-05-07T08:23:33;5.90;;;4.07;;
3447;SDS011;1738;49.500;17.736;2023-05-07T08:25:59;4.07;;;2.87;;
3447;SDS011;1738;49.500;17.736;2023-05-07T08:28:25;4.90;;;3.70;;
3447;SDS011;1738;49.500;17.736;2023-05-07T08:30:51;4.50;;;3.23;;
3447;SDS011;1738;49.500;17.736;2023-05-07T08:33:17;5.53;;;3.80;;
3447;SDS011;1738;49.500;17.736;2023-05-07T08:35:43;5.80;;;3.10;;
3447;SDS011;1738;49.500;17.736;2023-05-07T08:38:08;4.80;;;3.00;;
3447;SDS011;1738;49.500;17.736;2023-05-07T08:40:37;5.73;;;3.33;;
3447;SDS011;1738;49.500;17.736;2023-05-07T08:43:02;6.03;;;3.93;;
3447;SDS011;1738;49.500;17.736;2023-05-07T08:45:28;5.97;;;3.67;;
3447;SDS011;1738;49.500;17.736;2023-05-07T08:47:55;6.20;;;4.13;;
3447;SDS011;1738;49.500;17.736;2023-05-07T08:50:20;6.90;;;3.87;;
3447;SDS011;1738;49.500;17.736;2023-05-07T08:52:45;6.60;;;3.77;;
3447;SDS011;1738;49.500;17.736;2023-05-07T08:55:11;5.10;;;3.03;;
3447;SDS011;1738;49.500;17.736;2023-05-07T08:57:37;6.10;;;3.67;;
3447;SDS011;1738;49.500;17.736;2023-05-07T09:00:04;6.13;;;3.80;;
3447;SDS011;1738;49.500;17.736;2023-05-07T09:02:29;6.03;;;4.23;;
3447;SDS011;1738;49.500;17.736;2023-05-07T09:04:58;7.10;;;4.50;;
3447;SDS011;1738;49.500;17.736;2023-05-07T09:07:25;6.90;;;4.20;;
3447;SDS011;1738;49.500;17.736;2023-05-07T09:09:51;8.30;;;5.23;;
3447;SDS011;1738;49.500;17.736;2023-05-07T09:12:17;7.37;;;4.90;;
3447;SDS011;1738;49.500;17.736;2023-05-07T09:14:43;6.83;;;4.07;;
3447;SDS011;1738;49.500;17.736;2023-05-07T09:17:09;7.43;;;5.17;;
3447;SDS011;1738;49.500;17.736;2023-05-07T09:19:34;6.17;;;4.03;;
3447;SDS011;1738;49.500;17.736;2023-05-07T09:22:01;9.20;;;5.33;;
3447;SDS011;1738;49.500;17.736;2023-05-07T09:24:26;8.67;;;5.30;;
3447;SDS011;1738;49.500;17.736;2023-05-07T09:26:53;12.85;;;7.35;;
3447;SDS011;1738;49.500;17.736;2023-05-07T09:29:18;9.20;;;6.10;;
3447;SDS011;1738;49.500;17.736;2023-05-07T09:31:44;9.27;;;6.60;;
3447;SDS011;1738;49.500;17.736;2023-05-07T09:34:10;7.27;;;5.70;;
3447;SDS011;1738;49.500;17.736;2023-05-07T09:36:36;11.83;;;6.70;;
3447;SDS011;1738;49.500;17.736;2023-05-07T09:39:02;15.90;;;10.53;;
3447;SDS011;1738;49.500;17.736;2023-05-07T09:41:29;9.88;;;7.20;;
3447;SDS011;1738;49.500;17.736;2023-05-07T09:43:54;12.80;;;7.00;;
3447;SDS011;1738;49.500;17.736;2023-05-07T09:46:19;9.40;;;6.43;;
3447;SDS011;1738;49.500;17.736;2023-05-07T09:48:45;10.50;;;5.30;;
3447;SDS011;1738;49.500;17.736;2023-05-07T09:51:15;12.70;;;6.90;;
3447;SDS011;1738;49.500;17.736;2023-05-07T09:53:37;10.80;;;6.63;;
3447;SDS011;1738;49.500;17.736;2023-05-07T09:56:03;9.13;;;6.43;;
3447;SDS011;1738;49.500;17.736;2023-05-07T09:58:29;9.20;;;5.83;;
3447;SDS011;1738;49.500;17.736;2023-05-07T10:00:55;10.10;;;6.53;;
3447;SDS011;1738;49.500;17.736;2023-05-07T10:03:21;6.60;;;4.23;;
3447;SDS011;1738;49.500;17.736;2023-05-07T10:05:46;9.63;;;6.17;;
3447;SDS011;1738;49.500;17.736;2023-05-07T10:08:13;8.10;;;5.00;;
3447;SDS011;1738;49.500;17.736;2023-05-07T10:10:38;8.90;;;6.00;;
3447;SDS011;1738;49.500;17.736;2023-05-07T10:13:04;7.65;;;5.07;;
3447;SDS011;1738;49.500;17.736;2023-05-07T10:15:31;13.90;;;7.03;;
3447;SDS011;1738;49.500;17.736;2023-05-07T10:17:57;9.13;;;5.80;;
3447;SDS011;1738;49.500;17.736;2023-05-07T10:20:23;8.70;;;6.05;;
3447;SDS011;1738;49.500;17.736;2023-05-07T10:22:49;11.83;;;7.50;;
3447;SDS011;1738;49.500;17.736;2023-05-07T10:25:18;9.00;;;5.17;;
3447;SDS011;1738;49.500;17.736;2023-05-07T10:27:43;6.40;;;4.50;;
3447;SDS011;1738;49.500;17.736;2023-05-07T10:30:17;9.67;;;5.67;;
3447;SDS011;1738;49.500;17.736;2023-05-07T10:32:44;14.00;;;9.90;;
3447;SDS011;1738;49.500;17.736;2023-05-07T10:35:10;10.40;;;7.60;;
3447;SDS011;1738;49.500;17.736;2023-05-07T10:37:35;7.97;;;5.43;;
3447;SDS011;1738;49.500;17.736;2023-05-07T10:40:01;10.50;;;6.15;;
3447;SDS011;1738;49.500;17.736;2023-05-07T10:42:26;13.10;;;7.23;;
3447;SDS011;1738;49.500;17.736;2023-05-07T10:44:52;9.83;;;6.83;;
3447;SDS011;1738;49.500;17.736;2023-05-07T10:47:18;12.80;;;7.77;;
3447;SDS011;1738;49.500;17.736;2023-05-07T10:52:25;12.57;;;8.00;;
3447;SDS011;1738;49.500;17.736;2023-05-07T10:59:55;10.80;;;6.13;;
3447;SDS011;1738;49.500;17.736;2023-05-07T11:02:21;13.47;;;5.97;;
3447;SDS011;1738;49.500;17.736;2023-05-07T11:05:18;16.17;;;11.03;;
3447;SDS011;1738;49.500;17.736;2023-05-07T11:07:18;13.23;;;8.70;;
3447;SDS011;1738;49.500;17.736;2023-05-07T11:12:10;11.77;;;7.87;;
3447;SDS011;1738;49.500;17.736;2023-05-07T11:14:43;10.10;;;8.40;;
3447;SDS011;1738;49.500;17.736;2023-05-07T11:17:09;10.80;;;8.50;;
3447;SDS011;1738;49.500;17.736;2023-05-07T11:19:54;11.90;;;8.27;;
3447;SDS011;1738;49.500;17.736;2023-05-07T11:24:51;8.50;;;6.93;;
3447;SDS011;1738;49.500;17.736;2023-05-07T11:27:22;10.37;;;5.30;;
3447;SDS011;1738;49.500;17.736;2023-05-07T11:29:44;7.72;;;6.50;;
3447;SDS011;1738;49.500;17.736;2023-05-07T11:32:08;10.17;;;7.17;;
3447;SDS011;1738;49.500;17.736;2023-05-07T11:34:35;10.47;;;7.33;;
3447;SDS011;1738;49.500;17.736;2023-05-07T11:37:00;7.93;;;6.40;;
3447;SDS011;1738;49.500;17.736;2023-05-07T11:39:28;5.93;;;4.20;;
3447;SDS011;1738;49.500;17.736;2023-05-07T11:41:53;12.40;;;5.50;;
3447;SDS011;1738;49.500;17.736;2023-05-07T11:44:19;7.78;;;5.30;;
3447;SDS011;1738;49.500;17.736;2023-05-07T11:46:45;7.90;;;5.67;;
3447;SDS011;1738;49.500;17.736;2023-05-07T11:49:11;8.10;;;6.30;;
3447;SDS011;1738;49.500;17.736;2023-05-07T11:51:36;9.93;;;6.70;;
3447;SDS011;1738;49.500;17.736;2023-05-07T11:54:03;8.00;;;6.53;;
3447;SDS011;1738;49.500;17.736;2023-05-07T11:56:29;8.33;;;6.30;;
3447;SDS011;1738;49.500;17.736;2023-05-07T11:58:55;7.20;;;5.30;;
3447;SDS011;1738;49.500;17.736;2023-05-07T12:01:21;7.30;;;5.97;;
3447;SDS011;1738;49.500;17.736;2023-05-07T12:03:47;9.50;;;6.00;;
3447;SDS011;1738;49.500;17.736;2023-05-07T12:06:14;7.03;;;6.10;;
3447;SDS011;1738;49.500;17.736;2023-05-07T12:08:39;9.47;;;5.70;;
3447;SDS011;1738;49.500;17.736;2023-05-07T12:11:06;7.10;;;5.15;;
3447;SDS011;1738;49.500;17.736;2023-05-07T12:13:30;8.27;;;6.40;;
3447;SDS011;1738;49.500;17.736;2023-05-07T12:15:56;7.33;;;5.00;;
3447;SDS011;1738;49.500;17.736;2023-05-07T12:18:22;8.20;;;4.87;;
3447;SDS011;1738;49.500;17.736;2023-05-07T12:20:48;6.50;;;5.27;;
3447;SDS011;1738;49.500;17.736;2023-05-07T12:23:14;8.87;;;6.77;;
3447;SDS011;1738;49.500;17.736;2023-05-07T12:25:40;7.70;;;5.50;;
3447;SDS011;1738;49.500;17.736;2023-05-07T12:28:05;6.00;;;5.00;;
3447;SDS011;1738;49.500;17.736;2023-05-07T12:30:31;4.87;;;3.90;;
3447;SDS011;1738;49.500;17.736;2023-05-07T12:32:57;6.57;;;4.63;;
3447;SDS011;1738;49.500;17.736;2023-05-07T12:35:41;5.90;;;5.00;;
3447;SDS011;1738;49.500;17.736;2023-05-07T12:38:08;6.23;;;5.00;;
3447;SDS011;1738;49.500;17.736;2023-05-07T12:40:36;5.53;;;4.00;;
3447;SDS011;1738;49.500;17.736;2023-05-07T12:43:02;5.13;;;3.87;;
3447;SDS011;1738;49.500;17.736;2023-05-07T12:45:27;7.37;;;5.15;;
3447;SDS011;1738;49.500;17.736;2023-05-07T12:47:53;7.20;;;3.40;;
3447;SDS011;1738;49.500;17.736;2023-05-07T12:50:19;6.67;;;5.40;;
3447;SDS011;1738;49.500;17.736;2023-05-07T12:52:45;4.00;;;3.17;;
3447;SDS011;1738;49.500;17.736;2023-05-07T12:55:12;5.67;;;4.33;;
3447;SDS011;1738;49.500;17.736;2023-05-07T12:57:37;9.60;;;4.93;;
3447;SDS011;1738;49.500;17.736;2023-05-07T13:00:03;4.97;;;4.17;;
3447;SDS011;1738;49.500;17.736;2023-05-07T13:02:32;7.63;;;5.80;;
3447;SDS011;1738;49.500;17.736;2023-05-07T13:04:58;8.00;;;5.17;;
3447;SDS011;1738;49.500;17.736;2023-05-07T13:07:25;6.80;;;4.73;;
3447;SDS011;1738;49.500;17.736;2023-05-07T13:09:50;8.70;;;5.40;;
3447;SDS011;1738;49.500;17.736;2023-05-07T13:12:16;10.47;;;5.90;;
3447;SDS011;1738;49.500;17.736;2023-05-07T13:14:42;6.40;;;4.80;;
3447;SDS011;1738;49.500;17.736;2023-05-07T13:17:08;6.03;;;4.40;;
3447;SDS011;1738;49.500;17.736;2023-05-07T13:19:34;5.13;;;3.10;;
3447;SDS011;1738;49.500;17.736;2023-05-07T13:21:59;4.90;;;3.23;;
3447;SDS011;1738;49.500;17.736;2023-05-07T13:24:25;7.10;;;3.80;;
3447;SDS011;1738;49.500;17.736;2023-05-07T13:26:51;5.63;;;4.00;;
3447;SDS011;1738;49.500;17.736;2023-05-07T13:29:17;7.40;;;6.03;;
3447;SDS011;1738;49.500;17.736;2023-05-07T13:31:43;5.43;;;3.83;;
3447;SDS011;1738;49.500;17.736;2023-05-07T13:34:09;7.13;;;3.97;;
3447;SDS011;1738;49.500;17.736;2023-05-07T13:36:35;14.37;;;6.60;;
3447;SDS011;1738;49.500;17.736;2023-05-07T13:39:00;10.87;;;5.40;;
3447;SDS011;1738;49.500;17.736;2023-05-07T13:41:26;5.78;;;5.07;;
3447;SDS011;1738;49.500;17.736;2023-05-07T13:43:52;6.00;;;5.40;;
3447;SDS011;1738;49.500;17.736;2023-05-07T13:46:18;9.30;;;6.90;;
3447;SDS011;1738;49.500;17.736;2023-05-07T13:48:44;9.73;;;5.97;;
3447;SDS011;1738;49.500;17.736;2023-05-07T13:51:10;9.40;;;5.40;;
3447;SDS011;1738;49.500;17.736;2023-05-07T13:53:35;9.50;;;6.47;;
3447;SDS011;1738;49.500;17.736;2023-05-07T13:56:01;8.50;;;5.67;;
3447;SDS011;1738;49.500;17.736;2023-05-07T13:58:27;8.90;;;7.43;;
3447;SDS011;1738;49.500;17.736;2023-05-07T14:00:53;11.83;;;6.63;;
3447;SDS011;1738;49.500;17.736;2023-05-07T14:03:19;13.57;;;9.07;;
3447;SDS011;1738;49.500;17.736;2023-05-07T14:05:45;13.70;;;8.63;;
3447;SDS011;1738;49.500;17.736;2023-05-07T14:08:11;11.33;;;7.67;;
3447;SDS011;1738;49.500;17.736;2023-05-07T14:10:37;12.63;;;8.30;;
3447;SDS011;1738;49.500;17.736;2023-05-07T14:13:02;11.53;;;9.63;;
3447;SDS011;1738;49.500;17.736;2023-05-07T14:15:28;10.37;;;6.17;;
3447;SDS011;1738;49.500;17.736;2023-05-07T14:17:54;10.60;;;7.37;;
3447;SDS011;1738;49.500;17.736;2023-05-07T14:20:20;18.33;;;11.77;;
3447;SDS011;1738;49.500;17.736;2023-05-07T14:22:46;15.77;;;11.90;;
3447;SDS011;1738;49.500;17.736;2023-05-07T14:25:12;17.63;;;12.67;;
3447;SDS011;1738;49.500;17.736;2023-05-07T14:27:38;23.30;;;12.13;;
3447;SDS011;1738;49.500;17.736;2023-05-07T14:30:04;19.60;;;12.80;;
3447;SDS011;1738;49.500;17.736;2023-05-07T14:32:31;36.25;;;17.85;;
3447;SDS011;1738;49.500;17.736;2023-05-07T14:34:57;22.03;;;13.53;;
3447;SDS011;1738;49.500;17.736;2023-05-07T14:37:23;27.27;;;16.40;;
3447;SDS011;1738;49.500;17.736;2023-05-07T14:39:48;17.70;;;11.15;;
3447;SDS011;1738;49.500;17.736;2023-05-07T14:42:14;22.50;;;16.33;;
3447;SDS011;1738;49.500;17.736;2023-05-07T14:44:40;17.70;;;13.10;;
3447;SDS011;1738;49.500;17.736;2023-05-07T14:47:06;19.17;;;13.90;;
3447;SDS011;1738;49.500;17.736;2023-05-07T14:49:32;22.20;;;15.00;;
3447;SDS011;1738;49.500;17.736;2023-05-07T14:51:57;22.50;;;15.67;;
3447;SDS011;1738;49.500;17.736;2023-05-07T14:54:23;17.67;;;12.40;;
3447;SDS011;1738;49.500;17.736;2023-05-07T14:56:49;24.63;;;13.82;;
3447;SDS011;1738;49.500;17.736;2023-05-07T14:59:15;14.07;;;9.43;;